createdAt,value
2022-12-31T00:00:10.287Z,14.20
2022-12-31T00:02:37.200Z,14.20
2022-12-31T00:05:04.551Z,14.20
2022-12-31T00:09:57.833Z,14.30
2022-12-31T00:12:25.664Z,14.30
2022-12-31T00:14:52.344Z,14.30
2022-12-31T00:17:19.120Z,14.20
2022-12-31T00:19:46.025Z,14.40
2022-12-31T00:22:12.795Z,14.40
2022-12-31T00:24:39.707Z,14.40
2022-12-31T00:27:06.433Z,14.40
2022-12-31T00:29:33.191Z,14.40
2022-12-31T00:31:59.888Z,14.50
2022-12-31T00:34:27.484Z,14.50
2022-12-31T00:36:54.265Z,14.50
2022-12-31T00:39:21.146Z,14.50
2022-12-31T00:41:47.910Z,14.50
2022-12-31T00:44:14.673Z,14.60
2022-12-31T00:49:07.563Z,14.60
2022-12-31T00:51:34.407Z,14.60
2022-12-31T00:54:01.133Z,14.60
2022-12-31T00:56:30.539Z,14.60
2022-12-31T00:58:58.404Z,14.60
2022-12-31T01:01:34.345Z,14.70
2022-12-31T01:04:08.000Z,14.70
2022-12-31T01:06:35.200Z,14.70
2022-12-31T01:09:03.860Z,14.70
2022-12-31T01:11:33.033Z,14.70
2022-12-31T01:14:08.751Z,14.70
2022-12-31T01:17:02.781Z,14.70
2022-12-31T01:19:30.026Z,14.70
2022-12-31T01:21:57.183Z,14.80
2022-12-31T01:24:25.504Z,14.80
2022-12-31T01:26:52.372Z,14.70
2022-12-31T01:29:19.459Z,14.70
2022-12-31T01:31:46.406Z,14.70
2022-12-31T01:34:13.423Z,14.70
2022-12-31T01:36:40.813Z,14.70
2022-12-31T01:39:09.291Z,14.70
2022-12-31T01:41:40.276Z,14.80
2022-12-31T01:44:12.696Z,14.80
2022-12-31T01:46:48.878Z,14.80
2022-12-31T01:49:23.904Z,14.80
2022-12-31T01:52:00.361Z,14.80
2022-12-31T01:54:29.761Z,14.90
2022-12-31T01:56:57.141Z,14.90
2022-12-31T01:59:27.083Z,14.90
2022-12-31T02:01:54.713Z,14.90
2022-12-31T02:04:24.023Z,14.90
2022-12-31T02:06:57.773Z,14.90
2022-12-31T02:09:25.832Z,14.90
2022-12-31T02:11:52.786Z,15.00
2022-12-31T02:14:24.306Z,15.00
2022-12-31T02:17:07.256Z,15.10
2022-12-31T02:20:02.307Z,15.10
2022-12-31T02:23:05.707Z,15.10
2022-12-31T02:26:02.019Z,15.20
2022-12-31T02:29:05.396Z,15.20
2022-12-31T02:31:37.438Z,15.20
2022-12-31T02:34:13.062Z,15.20
2022-12-31T02:36:45.627Z,15.20
2022-12-31T02:39:13.778Z,15.20
2022-12-31T02:41:52.625Z,15.20
2022-12-31T02:44:25.496Z,15.20
2022-12-31T02:47:37.004Z,15.20
2022-12-31T02:50:18.641Z,15.20
2022-12-31T02:53:06.572Z,15.20
2022-12-31T02:55:57.882Z,15.30
2022-12-31T02:59:17.430Z,15.30
2022-12-31T03:02:09.566Z,15.30
2022-12-31T03:04:36.761Z,15.30
2022-12-31T03:07:09.548Z,15.30
2022-12-31T03:09:37.256Z,15.30
2022-12-31T03:12:25.419Z,15.20
2022-12-31T03:14:52.464Z,15.20
2022-12-31T03:17:19.383Z,15.20
2022-12-31T03:20:04.735Z,15.20
2022-12-31T03:22:33.256Z,15.20
2022-12-31T03:25:54.535Z,15.20
2022-12-31T03:28:23.330Z,15.30
2022-12-31T03:30:52.986Z,15.20
2022-12-31T03:33:21.247Z,15.30
2022-12-31T03:35:49.032Z,15.30
2022-12-31T03:38:17.507Z,15.30
2022-12-31T03:40:47.277Z,15.30
2022-12-31T03:43:14.371Z,15.30
2022-12-31T03:45:41.501Z,15.30
2022-12-31T03:48:09.786Z,15.30
2022-12-31T03:50:37.292Z,15.20
2022-12-31T03:53:04.214Z,15.20
2022-12-31T03:55:30.941Z,15.20
2022-12-31T03:57:57.777Z,15.20
2022-12-31T04:00:24.692Z,15.20
2022-12-31T04:02:52.178Z,15.20
2022-12-31T04:05:20.144Z,15.30
2022-12-31T04:07:47.397Z,15.30
2022-12-31T04:10:17.021Z,15.30
2022-12-31T04:12:44.762Z,15.40
2022-12-31T04:15:20.126Z,15.40
2022-12-31T04:17:48.054Z,15.40
2022-12-31T04:20:15.996Z,15.40
2022-12-31T04:22:43.003Z,15.40
2022-12-31T04:25:11.388Z,15.40
2022-12-31T04:27:40.293Z,15.40
2022-12-31T04:30:07.937Z,15.40
2022-12-31T04:32:56.116Z,15.40
2022-12-31T04:35:22.943Z,15.40
2022-12-31T04:37:49.689Z,15.40
2022-12-31T04:40:16.423Z,15.40
2022-12-31T04:42:44.279Z,15.40
2022-12-31T04:45:11.230Z,15.50
2022-12-31T04:47:37.990Z,15.50
2022-12-31T04:50:05.482Z,15.50
2022-12-31T04:52:35.766Z,15.60
2022-12-31T04:55:10.745Z,15.60
2022-12-31T04:57:37.513Z,15.60
2022-12-31T05:00:04.502Z,15.70
2022-12-31T05:02:31.490Z,15.70
2022-12-31T05:04:58.319Z,15.80
2022-12-31T05:07:25.072Z,15.70
2022-12-31T05:09:51.986Z,15.80
2022-12-31T05:12:18.891Z,15.80
2022-12-31T05:14:46.581Z,15.90
2022-12-31T05:17:13.373Z,15.90
2022-12-31T05:19:40.051Z,15.90
2022-12-31T05:22:25.220Z,16.00
2022-12-31T05:24:52.830Z,15.90
2022-12-31T05:27:19.616Z,16.00
2022-12-31T05:29:46.412Z,16.00
2022-12-31T05:32:13.293Z,16.00
2022-12-31T05:34:40.079Z,16.00
2022-12-31T05:37:06.856Z,16.00
2022-12-31T05:39:33.566Z,16.00
2022-12-31T05:42:01.477Z,16.10
2022-12-31T05:44:28.202Z,16.10
2022-12-31T05:46:56.360Z,16.10
2022-12-31T05:49:23.066Z,16.10
2022-12-31T05:51:49.927Z,16.10
2022-12-31T05:54:16.712Z,16.20
2022-12-31T05:56:53.190Z,16.20
2022-12-31T05:59:20.018Z,16.10
2022-12-31T06:01:46.836Z,16.10
2022-12-31T06:04:13.637Z,16.10
2022-12-31T06:06:41.459Z,16.00
2022-12-31T06:09:08.507Z,16.00
2022-12-31T06:11:35.302Z,16.00
2022-12-31T06:14:03.295Z,16.00
2022-12-31T06:16:30.393Z,16.00
2022-12-31T06:18:57.241Z,16.00
2022-12-31T06:21:24.030Z,16.10
2022-12-31T06:23:53.813Z,16.10
2022-12-31T06:26:20.595Z,16.10
2022-12-31T06:28:47.757Z,16.10
2022-12-31T06:31:16.202Z,16.20
2022-12-31T06:33:43.214Z,16.10
2022-12-31T06:36:13.495Z,16.20
2022-12-31T06:38:41.713Z,16.20
2022-12-31T06:41:12.840Z,16.20
2022-12-31T06:43:40.811Z,16.20
2022-12-31T06:46:10.113Z,16.30
2022-12-31T06:48:38.087Z,16.30
2022-12-31T06:51:16.777Z,16.20
2022-12-31T06:53:48.877Z,16.30
2022-12-31T06:56:31.247Z,16.30
2022-12-31T06:59:00.781Z,16.30
2022-12-31T07:01:51.637Z,16.30
2022-12-31T07:05:00.288Z,16.40
2022-12-31T07:07:36.736Z,16.40
2022-12-31T07:10:33.488Z,16.30
2022-12-31T07:13:10.449Z,16.40
2022-12-31T07:15:45.049Z,16.40
2022-12-31T07:18:23.757Z,16.40
2022-12-31T07:20:51.882Z,16.40
2022-12-31T07:23:19.489Z,16.40
2022-12-31T07:25:59.044Z,16.40
2022-12-31T07:28:37.612Z,16.40
2022-12-31T07:31:39.837Z,16.40
2022-12-31T07:34:33.593Z,16.40
2022-12-31T07:37:17.860Z,16.40
2022-12-31T07:40:18.564Z,16.40
2022-12-31T07:43:22.586Z,16.40
2022-12-31T07:45:56.509Z,16.40
2022-12-31T07:48:26.591Z,16.40
2022-12-31T07:50:55.373Z,16.40
2022-12-31T07:53:24.766Z,16.40
2022-12-31T07:56:03.902Z,16.40
2022-12-31T07:58:52.092Z,16.40
2022-12-31T08:01:50.220Z,16.40
2022-12-31T08:04:31.318Z,16.40
2022-12-31T08:07:15.706Z,16.40
2022-12-31T08:09:47.560Z,16.40
2022-12-31T08:12:15.285Z,16.40
2022-12-31T08:14:47.780Z,16.40
2022-12-31T08:17:18.492Z,16.50
2022-12-31T08:19:46.385Z,16.50
2022-12-31T08:22:20.221Z,16.50
2022-12-31T08:25:13.941Z,16.50
2022-12-31T08:27:43.757Z,16.50
2022-12-31T08:30:17.954Z,16.60
2022-12-31T08:33:03.304Z,16.60
2022-12-31T08:36:06.422Z,16.60
2022-12-31T08:38:47.613Z,16.60
2022-12-31T08:41:20.491Z,16.60
2022-12-31T08:44:21.334Z,16.60
2022-12-31T08:47:03.425Z,16.60
2022-12-31T08:49:32.977Z,16.60
2022-12-31T08:52:00.743Z,16.60
2022-12-31T08:54:29.618Z,16.60
2022-12-31T08:57:17.818Z,16.60
2022-12-31T08:59:59.061Z,16.60
2022-12-31T09:02:53.470Z,16.70
2022-12-31T09:05:46.574Z,16.70
2022-12-31T09:08:34.635Z,16.70
2022-12-31T09:11:23.155Z,16.70
2022-12-31T09:14:18.558Z,16.70
2022-12-31T09:16:54.152Z,16.70
2022-12-31T09:19:21.066Z,16.80
2022-12-31T09:21:48.157Z,16.80
2022-12-31T09:24:15.885Z,16.90
2022-12-31T09:26:45.768Z,17.00
2022-12-31T09:29:54.359Z,17.00
2022-12-31T09:32:58.577Z,17.00
2022-12-31T09:35:52.502Z,17.10
2022-12-31T09:38:39.933Z,17.20
2022-12-31T09:41:16.974Z,17.30
2022-12-31T09:43:49.512Z,17.30
2022-12-31T09:46:31.366Z,17.40
2022-12-31T09:49:10.142Z,17.50
2022-12-31T09:51:49.092Z,17.60
2022-12-31T09:54:28.257Z,17.60
2022-12-31T09:57:19.880Z,17.60
2022-12-31T09:59:57.957Z,17.70
2022-12-31T10:02:53.996Z,17.70
2022-12-31T10:05:23.590Z,17.70
2022-12-31T10:08:12.324Z,17.70
2022-12-31T10:10:57.536Z,17.70
2022-12-31T10:14:06.463Z,17.70
2022-12-31T10:17:01.556Z,17.70
2022-12-31T10:19:56.633Z,17.70
2022-12-31T10:22:45.832Z,17.70
2022-12-31T10:25:50.201Z,17.70
2022-12-31T10:28:37.385Z,17.70
2022-12-31T10:31:16.222Z,17.70
2022-12-31T10:33:44.934Z,17.70
2022-12-31T10:36:18.825Z,17.70
2022-12-31T10:38:56.387Z,17.70
2022-12-31T10:42:07.272Z,17.80
2022-12-31T10:45:06.201Z,17.80
2022-12-31T10:47:54.681Z,17.80
2022-12-31T10:50:58.848Z,17.80
2022-12-31T10:53:52.506Z,17.80
2022-12-31T10:56:42.533Z,17.80
2022-12-31T10:59:15.257Z,17.80
2022-12-31T11:01:52.960Z,17.80
2022-12-31T11:05:00.379Z,17.80
2022-12-31T11:07:27.656Z,17.80
2022-12-31T11:10:19.137Z,17.80
2022-12-31T11:13:04.088Z,17.90
2022-12-31T11:15:49.839Z,17.90
2022-12-31T11:18:35.664Z,17.90
2022-12-31T11:21:08.469Z,17.90
2022-12-31T11:23:57.122Z,17.90
2022-12-31T11:26:35.148Z,17.90
2022-12-31T11:29:14.720Z,17.90
2022-12-31T11:31:54.112Z,17.90
2022-12-31T11:34:33.892Z,17.90
2022-12-31T11:37:36.151Z,17.90
2022-12-31T11:40:27.787Z,17.90
2022-12-31T11:43:32.285Z,17.90
2022-12-31T11:46:26.726Z,17.90
2022-12-31T11:49:19.815Z,17.80
2022-12-31T11:52:22.887Z,17.80
2022-12-31T11:54:55.537Z,17.80
2022-12-31T11:57:33.371Z,17.70
2022-12-31T12:00:20.590Z,17.70
2022-12-31T12:02:53.533Z,17.70
2022-12-31T12:05:23.098Z,17.70
2022-12-31T12:07:51.157Z,17.80
2022-12-31T12:10:25.263Z,17.90
2022-12-31T12:12:56.495Z,18.00
2022-12-31T12:15:33.459Z,18.00
2022-12-31T12:18:23.410Z,18.10
2022-12-31T12:20:50.393Z,18.00
2022-12-31T12:23:24.496Z,18.10
2022-12-31T12:25:52.465Z,18.10
2022-12-31T12:28:24.764Z,18.20
2022-12-31T12:31:00.484Z,18.10
2022-12-31T12:33:29.847Z,18.20
2022-12-31T12:36:11.749Z,18.30
2022-12-31T12:38:39.379Z,18.30
2022-12-31T12:41:11.803Z,18.30
2022-12-31T12:43:38.973Z,18.30
2022-12-31T12:46:18.255Z,18.30
2022-12-31T12:48:48.654Z,18.30
2022-12-31T12:51:33.480Z,18.30
2022-12-31T12:54:37.495Z,18.30
2022-12-31T12:57:45.712Z,18.20
2022-12-31T13:00:21.161Z,18.20
2022-12-31T13:03:25.793Z,18.30
2022-12-31T13:06:14.020Z,18.20
2022-12-31T13:08:40.696Z,18.20
2022-12-31T13:11:26.497Z,18.20
2022-12-31T13:14:31.425Z,18.20
2022-12-31T13:17:06.990Z,18.20
2022-12-31T13:19:42.819Z,18.10
2022-12-31T13:22:28.711Z,18.20
2022-12-31T13:25:01.380Z,18.10
2022-12-31T13:27:28.160Z,18.20
2022-12-31T13:30:00.404Z,18.20
2022-12-31T13:32:44.706Z,18.30
2022-12-31T13:35:24.479Z,18.30
2022-12-31T13:38:10.593Z,18.30
2022-12-31T13:40:46.158Z,18.30
2022-12-31T13:43:22.532Z,18.20
2022-12-31T13:46:01.957Z,18.20
2022-12-31T13:48:36.532Z,18.20
2022-12-31T13:51:58.828Z,18.20
2022-12-31T13:55:06.105Z,18.20
2022-12-31T13:58:00.493Z,18.20
2022-12-31T14:00:35.950Z,18.10
2022-12-31T14:03:14.444Z,18.10
2022-12-31T14:05:47.341Z,18.10
2022-12-31T14:08:14.456Z,18.10
2022-12-31T14:10:54.681Z,18.10
2022-12-31T14:13:34.993Z,18.00
2022-12-31T14:16:24.784Z,18.00
2022-12-31T14:19:43.130Z,17.90
2022-12-31T14:22:34.005Z,17.90
2022-12-31T14:25:14.462Z,17.80
2022-12-31T14:27:44.352Z,17.80
2022-12-31T14:30:22.044Z,17.80
2022-12-31T14:33:17.986Z,17.80
2022-12-31T14:36:08.276Z,17.70
2022-12-31T14:39:16.815Z,17.60
2022-12-31T14:42:10.280Z,17.60
2022-12-31T14:44:46.019Z,17.50
2022-12-31T14:47:40.891Z,17.50
2022-12-31T14:50:18.182Z,17.50
2022-12-31T14:52:59.913Z,17.40
2022-12-31T14:55:32.421Z,17.40
2022-12-31T14:58:27.654Z,17.40
2022-12-31T15:00:59.752Z,17.40
2022-12-31T15:03:33.363Z,17.30
2022-12-31T15:06:26.693Z,17.30
2022-12-31T15:09:08.213Z,17.30
2022-12-31T15:11:57.812Z,17.30
2022-12-31T15:14:52.107Z,17.30
2022-12-31T15:17:24.488Z,17.30
2022-12-31T15:20:17.190Z,17.20
2022-12-31T15:22:47.609Z,17.20
2022-12-31T15:25:21.622Z,17.20
2022-12-31T15:27:49.704Z,17.20
2022-12-31T15:30:33.797Z,17.10
2022-12-31T15:33:08.929Z,17.10
2022-12-31T15:35:51.589Z,17.10
2022-12-31T15:38:28.982Z,17.00
2022-12-31T15:40:56.245Z,17.10
2022-12-31T15:43:45.358Z,17.00
2022-12-31T15:46:20.050Z,17.00
2022-12-31T15:48:55.431Z,17.00
2022-12-31T15:51:30.353Z,16.90
2022-12-31T15:53:58.750Z,16.90
2022-12-31T15:56:33.754Z,16.90
2022-12-31T15:59:04.340Z,16.90
2022-12-31T16:01:35.049Z,16.90
2022-12-31T16:04:05.884Z,16.90
2022-12-31T16:06:44.883Z,16.80
2022-12-31T16:09:25.346Z,16.80
2022-12-31T16:11:54.416Z,16.70
2022-12-31T16:14:32.078Z,16.70
2022-12-31T16:17:01.259Z,16.70
2022-12-31T16:19:33.077Z,16.80
2022-12-31T16:22:07.856Z,16.70
2022-12-31T16:24:48.940Z,16.80
2022-12-31T16:27:24.231Z,16.80
2022-12-31T16:30:00.705Z,16.80
2022-12-31T16:32:35.807Z,16.80
2022-12-31T16:35:10.100Z,16.70
2022-12-31T16:37:46.554Z,16.70
2022-12-31T16:40:24.103Z,16.60
2022-12-31T16:42:53.142Z,16.70
2022-12-31T16:45:36.005Z,16.60
2022-12-31T16:48:20.439Z,16.60
2022-12-31T16:50:54.087Z,16.60
2022-12-31T16:53:24.930Z,16.60
2022-12-31T16:56:09.181Z,16.60
2022-12-31T16:58:45.318Z,16.60
2022-12-31T17:01:20.454Z,16.50
2022-12-31T17:03:54.756Z,16.50
2022-12-31T17:06:22.106Z,16.60
2022-12-31T17:09:01.146Z,16.60
2022-12-31T17:11:33.737Z,16.50
2022-12-31T17:14:06.904Z,16.50
2022-12-31T17:17:01.457Z,16.50
2022-12-31T17:19:42.645Z,16.50
2022-12-31T17:22:29.802Z,16.50
2022-12-31T17:25:08.999Z,16.50
2022-12-31T17:27:36.862Z,16.50
2022-12-31T17:30:35.445Z,16.50
2022-12-31T17:33:05.168Z,16.50
2022-12-31T17:35:34.264Z,16.50
2022-12-31T17:38:23.069Z,16.40
2022-12-31T17:40:55.222Z,16.40
2022-12-31T17:43:25.770Z,16.40
2022-12-31T17:45:55.615Z,16.40
2022-12-31T17:48:24.708Z,16.30
2022-12-31T17:50:57.209Z,16.30
2022-12-31T17:53:23.975Z,16.30
2022-12-31T17:55:53.478Z,16.30
2022-12-31T17:58:44.862Z,16.20
2022-12-31T18:01:15.795Z,16.20
2022-12-31T18:03:42.641Z,16.20
2022-12-31T18:06:16.371Z,16.20
2022-12-31T18:08:43.485Z,16.10
2022-12-31T18:11:19.902Z,16.10
2022-12-31T18:13:47.029Z,16.10
2022-12-31T18:16:14.539Z,16.10
2022-12-31T18:18:42.352Z,16.10
2022-12-31T18:21:24.170Z,16.10
2022-12-31T18:23:51.321Z,16.10
2022-12-31T18:26:23.452Z,16.10
2022-12-31T18:28:50.935Z,16.10
2022-12-31T18:31:23.885Z,16.10
2022-12-31T18:33:51.992Z,16.10
2022-12-31T18:36:22.451Z,16.00
2022-12-31T18:38:49.800Z,16.00
2022-12-31T18:41:20.280Z,16.00
2022-12-31T18:43:47.985Z,15.90
2022-12-31T18:46:17.146Z,16.00
2022-12-31T18:48:44.407Z,16.00
2022-12-31T18:51:15.392Z,16.00
2022-12-31T18:53:42.333Z,15.90
2022-12-31T18:56:14.898Z,15.90
2022-12-31T18:58:41.869Z,15.90
2022-12-31T19:01:28.863Z,15.90
2022-12-31T19:04:01.433Z,15.80
2022-12-31T19:06:30.685Z,15.90
2022-12-31T19:08:59.165Z,15.90
2022-12-31T19:11:28.110Z,15.80
2022-12-31T19:13:54.905Z,15.80
2022-12-31T19:16:23.431Z,15.90
2022-12-31T19:18:50.891Z,15.90
2022-12-31T19:21:23.729Z,15.80
2022-12-31T19:23:51.182Z,15.80
2022-12-31T19:26:20.216Z,15.80
2022-12-31T19:28:49.008Z,15.90
2022-12-31T19:31:16.635Z,15.80
2022-12-31T19:33:44.144Z,15.80
2022-12-31T19:36:18.070Z,15.80
2022-12-31T19:38:45.121Z,15.80
2022-12-31T19:41:18.329Z,15.80
2022-12-31T19:43:45.831Z,15.80
2022-12-31T19:46:18.576Z,15.80
2022-12-31T19:48:46.117Z,15.80
2022-12-31T19:51:18.061Z,15.80
2022-12-31T19:53:46.073Z,15.80
2022-12-31T19:56:14.733Z,15.80
2022-12-31T19:58:41.581Z,15.80
2022-12-31T20:01:10.590Z,15.80
2022-12-31T20:03:37.431Z,15.80
2022-12-31T20:06:09.697Z,15.80
2022-12-31T20:08:38.421Z,15.80
2022-12-31T20:11:17.469Z,15.80
2022-12-31T20:13:45.368Z,15.80
2022-12-31T20:16:18.553Z,15.80
2022-12-31T20:18:49.768Z,15.80
2022-12-31T20:21:25.358Z,15.80
2022-12-31T20:23:53.757Z,15.80
2022-12-31T20:26:22.956Z,15.80
2022-12-31T20:28:51.119Z,15.80
2022-12-31T20:31:22.639Z,15.80
2022-12-31T20:33:51.587Z,15.80
2022-12-31T20:36:18.369Z,15.80
2022-12-31T20:38:45.540Z,15.80
2022-12-31T20:41:18.196Z,15.80
2022-12-31T20:43:45.516Z,15.80
2022-12-31T20:46:20.444Z,15.80
2022-12-31T20:48:48.530Z,15.70
2022-12-31T20:51:16.859Z,15.80
2022-12-31T20:53:52.244Z,15.90
2022-12-31T20:56:19.009Z,15.80
2022-12-31T20:58:48.735Z,15.80
2022-12-31T21:01:17.107Z,15.80
2022-12-31T21:06:33.536Z,15.80
2022-12-31T21:09:02.077Z,15.80
2022-12-31T21:11:47.368Z,15.80
2022-12-31T21:14:14.209Z,15.80
2022-12-31T21:16:42.209Z,15.80
2022-12-31T21:19:09.911Z,15.80
2022-12-31T21:21:37.004Z,15.70
2022-12-31T21:24:04.006Z,15.80
2022-12-31T21:26:30.917Z,15.80
2022-12-31T21:28:57.834Z,15.80
2022-12-31T21:31:25.987Z,15.80
2022-12-31T21:33:52.815Z,15.80
2022-12-31T21:36:19.902Z,15.80
2022-12-31T21:38:46.626Z,15.80
2022-12-31T21:41:35.168Z,15.80
2022-12-31T21:44:02.648Z,15.80
2022-12-31T21:46:29.630Z,15.80
2022-12-31T21:48:58.283Z,15.70
2022-12-31T21:51:25.935Z,15.70
2022-12-31T21:53:52.902Z,15.70
2022-12-31T21:56:21.318Z,15.70
2022-12-31T21:59:13.742Z,15.70
2022-12-31T22:02:12.091Z,15.70
2022-12-31T22:07:25.573Z,15.70
2022-12-31T22:09:52.281Z,15.70
2022-12-31T22:12:19.169Z,15.60
2022-12-31T22:15:14.642Z,15.60
2022-12-31T22:17:32.674Z,15.60
2022-12-31T22:22:46.107Z,15.60
2022-12-31T22:25:13.048Z,15.60
2022-12-31T22:27:39.730Z,15.60
2022-12-31T22:30:07.329Z,15.60
2022-12-31T22:32:34.131Z,15.60
2022-12-31T22:35:00.915Z,15.60
2022-12-31T22:37:55.558Z,15.60
2022-12-31T22:40:16.439Z,15.60
2022-12-31T22:42:43.265Z,15.60
2022-12-31T22:45:10.808Z,15.60
2022-12-31T22:47:37.746Z,15.60
2022-12-31T22:50:05.020Z,15.60
2022-12-31T22:52:31.776Z,15.70
2022-12-31T22:54:58.935Z,15.70
2022-12-31T22:57:25.707Z,15.70
2022-12-31T22:59:54.889Z,15.60
2022-12-31T23:02:22.760Z,15.60
2022-12-31T23:04:49.611Z,15.60
2022-12-31T23:07:16.517Z,15.60
2022-12-31T23:10:01.894Z,15.60
2022-12-31T23:12:31.466Z,15.60
2022-12-31T23:15:16.651Z,15.60
2022-12-31T23:18:02.212Z,15.60
2022-12-31T23:20:47.507Z,15.50
2022-12-31T23:23:17.450Z,15.50
2022-12-31T23:25:46.852Z,15.50
2022-12-31T23:28:23.637Z,15.50
2022-12-31T23:30:51.938Z,15.50
2022-12-31T23:33:21.565Z,15.50
2022-12-31T23:35:48.856Z,15.50
2022-12-31T23:38:19.676Z,15.50
2022-12-31T23:40:46.511Z,15.40
2022-12-31T23:43:21.736Z,15.40
2022-12-31T23:45:51.715Z,15.40
2022-12-31T23:48:18.463Z,15.30
2022-12-31T23:50:52.929Z,15.40
2022-12-31T23:53:21.301Z,15.40
2022-12-31T23:55:48.024Z,15.30
2022-12-31T23:58:15.329Z,15.40
